Time;durP1;ratioP1;P1;durP2;ratioP2;P2;SDS_P1;SDS_P2;PMS_P1;PMS_P2;Temp;Humidity;BMP_temperature;BMP_pressure;BME280_temperature;BME280_humidity;BME280_pressure;Samples;Min_cycle;Max_cycle;Signal;HPM_P1;HPM_P2
2021/01/05 00:01:45;;;;;;;329.23;135.78;;;;;;;1.83;75.74;96587.02;1822055;77;25779;-82
2021/01/05 00:04:13;;;;;;;296.57;125.55;;;;;;;1.85;75.71;96591.66;1835204;77;27483;-82
2021/01/05 00:06:40;;;;;;;302.00;128.60;;;;;;;1.85;75.72;96589.83;1824986;77;25714;-82
2021/01/05 00:09:07;;;;;;;289.48;122.82;;;;;;;1.86;75.69;96586.67;1809518;77;25783;-82
2021/01/05 00:11:35;;;;;;;282.55;120.13;;;;;;;1.86;75.76;96588.00;1809504;77;26266;-83
2021/01/05 00:14:02;;;;;;;263.82;114.55;;;;;;;1.88;75.79;96588.16;1809398;77;25774;-82
2021/01/05 00:16:31;;;;;;;269.87;113.32;;;;;;;1.87;75.89;96594.98;1832790;77;27548;-83
2021/01/05 00:18:58;;;;;;;256.82;111.30;;;;;;;1.74;75.89;96593.73;1809419;77;25737;-83
2021/01/05 00:21:26;;;;;;;244.80;105.78;;;;;;;1.75;75.99;96593.23;1809520;77;26235;-83
2021/01/05 00:23:54;;;;;;;228.90;101.95;;;;;;;1.78;76.15;96595.05;1809401;77;25699;-83
2021/01/05 00:26:21;;;;;;;234.80;102.42;;;;;;;1.83;76.23;96589.67;1809427;77;25874;-83
2021/01/05 00:28:48;;;;;;;240.90;104.65;;;;;;;1.85;76.27;96593.83;1809480;77;27496;-82
2021/01/05 00:31:16;;;;;;;232.52;103.83;;;;;;;1.88;76.34;96589.98;1809235;77;25847;-84
2021/01/05 00:33:43;;;;;;;231.20;104.27;;;;;;;1.91;76.29;96590.47;1809467;77;25827;-83
2021/01/05 00:36:11;;;;;;;262.10;111.90;;;;;;;1.91;76.24;96591.80;1809635;77;25821;-82
2021/01/05 00:38:38;;;;;;;286.80;121.85;;;;;;;1.94;76.23;96590.59;1831403;77;25908;-83
2021/01/05 00:41:05;;;;;;;274.58;111.62;;;;;;;1.92;76.24;96585.47;1833767;77;27513;-83
2021/01/05 00:43:33;;;;;;;152.72;66.65;;;;;;;1.92;76.32;96579.32;1797416;77;25758;-82
2021/01/05 00:46:00;;;;;;;180.40;81.37;;;;;;;1.81;76.28;96580.03;1810925;77;25573;-82
2021/01/05 00:48:28;;;;;;;217.60;96.87;;;;;;;1.84;76.60;96569.55;1817126;77;25734;-82
2021/01/05 00:50:55;;;;;;;200.38;87.88;;;;;;;1.91;76.71;96571.84;1806639;77;25297;-84
2021/01/05 00:53:22;;;;;;;186.20;83.58;;;;;;;1.85;76.62;96571.70;1842626;77;27491;-83
2021/01/05 00:55:50;;;;;;;181.93;82.27;;;;;;;1.86;76.76;96565.38;1819375;77;26274;-82
2021/01/05 00:58:18;;;;;;;180.45;80.90;;;;;;;1.89;76.77;96558.38;1809524;77;26411;-83
2021/01/05 01:00:46;;;;;;;136.82;59.98;;;;;;;1.88;76.82;96561.55;1795541;77;25723;-83
2021/01/05 01:03:13;;;;;;;103.58;50.58;;;;;;;1.88;76.91;96566.03;1831356;77;25749;-83
2021/01/05 01:05:41;;;;;;;93.33;47.45;;;;;;;1.93;77.06;96559.69;1809453;77;27540;-83
2021/01/05 01:08:09;;;;;;;115.85;54.50;;;;;;;1.97;77.14;96559.63;1797105;77;25738;-83
2021/01/05 01:10:36;;;;;;;158.90;73.62;;;;;;;1.98;77.07;96558.63;1821216;77;26080;-82
2021/01/05 01:13:04;;;;;;;213.37;92.75;;;;;;;1.92;77.02;96556.70;1831089;77;26487;-82
2021/01/05 01:15:31;;;;;;;231.57;97.00;;;;;;;1.96;77.01;96567.30;1824777;77;25765;-83
2021/01/05 01:17:58;;;;;;;225.75;98.50;;;;;;;1.99;77.01;96568.28;1819107;77;28525;-82
2021/01/05 01:20:26;;;;;;;242.90;100.97;;;;;;;2.02;77.00;96575.91;1842434;77;26109;-82
2021/01/05 01:22:53;;;;;;;234.32;97.33;;;;;;;2.02;76.91;96564.77;1826753;77;25734;-83
2021/01/05 01:25:21;;;;;;;226.20;94.47;;;;;;;2.00;76.88;96570.77;1812455;77;25906;-82
2021/01/05 01:27:48;;;;;;;197.13;88.27;;;;;;;2.04;76.93;96571.25;1829515;77;25759;-83
2021/01/05 01:30:17;;;;;;;191.35;87.17;;;;;;;2.04;76.91;96569.91;1828127;77;27536;-83
2021/01/05 01:32:44;;;;;;;175.42;81.57;;;;;;;2.06;76.93;96563.87;1842295;77;26119;-84
2021/01/05 01:35:14;;;;;;;169.70;75.50;;;;;;;2.10;76.98;96558.53;1834638;77;25811;-83
2021/01/05 01:37:42;;;;;;;169.53;76.42;;;;;;;2.13;76.92;96562.18;1824241;77;25757;-83
2021/01/05 01:40:11;;;;;;;146.98;72.60;;;;;;;2.13;76.87;96559.52;1832737;77;25773;-83
2021/01/05 01:42:39;;;;;;;121.15;59.38;;;;;;;2.07;76.74;96550.39;1828091;77;28316;-83
2021/01/05 01:45:08;;;;;;;81.40;42.55;;;;;;;2.05;76.81;96542.29;1839228;77;25726;-84
2021/01/05 01:47:39;;;;;;;71.30;35.83;;;;;;;2.03;76.87;96542.97;1818174;77;26236;-84
2021/01/05 01:50:14;;;;;;;60.20;32.78;;;;;;;1.97;76.92;96537.84;1818191;77;25762;-83
2021/01/05 01:53:24;;;;;;;60.70;34.05;;;;;;;1.99;77.09;96535.83;1818151;77;25353;-83
2021/01/05 01:56:03;;;;;;;54.10;29.87;;;;;;;1.88;76.98;96528.78;1818191;77;27541;-83
2021/01/05 01:58:50;;;;;;;52.95;26.90;;;;;;;1.80;77.17;96523.86;1827509;77;25734;-83
2021/01/05 02:01:35;;;;;;;46.13;26.07;;;;;;;1.74;77.24;96519.23;1826373;77;25701;-83
2021/01/05 02:04:23;;;;;;;39.33;24.15;;;;;;;1.78;77.37;96519.21;1817811;77;25791;-83
2021/01/05 02:07:05;;;;;;;40.73;24.72;;;;;;;1.83;77.43;96523.15;1817630;77;26409;-84
2021/01/05 02:09:50;;;;;;;44.65;26.02;;;;;;;1.87;77.46;96520.47;1815860;77;27590;-84
2021/01/05 02:12:39;;;;;;;42.85;25.08;;;;;;;1.85;77.38;96522.47;1829017;77;26428;-83
2021/01/05 02:15:20;;;;;;;39.85;23.50;;;;;;;1.89;77.42;96518.46;1823798;77;25724;-83
2021/01/05 02:18:07;;;;;;;41.20;22.93;;;;;;;1.91;77.41;96517.78;1817599;77;25784;-83
2021/01/05 02:20:52;;;;;;;39.20;23.10;;;;;;;1.91;77.37;96515.95;1839947;77;25846;-81
2021/01/05 02:23:31;;;;;;;38.02;20.82;;;;;;;1.86;77.35;96506.83;1814864;77;28694;-82
2021/01/05 02:26:29;;;;;;;33.30;20.30;;;;;;;1.90;77.40;96509.47;1817866;77;25852;-81
2021/01/05 02:29:08;;;;;;;30.35;19.42;;;;;;;1.81;77.28;96502.86;1818799;77;25986;-82
2021/01/05 02:32:10;;;;;;;33.70;20.82;;;;;;;1.69;77.21;96506.95;1844958;77;26380;-83
2021/01/05 02:35:11;;;;;;;31.57;18.77;;;;;;;1.63;77.41;96502.36;1856834;77;25726;-83
2021/01/05 02:37:56;;;;;;;29.20;19.07;;;;;;;1.59;77.45;96497.05;1856162;77;27483;-82
2021/01/05 02:40:44;;;;;;;28.38;17.55;;;;;;;1.51;77.55;96498.45;1857504;77;25750;-83
2021/01/05 02:43:46;;;;;;;29.20;18.12;;;;;;;1.48;77.58;96489.99;1857721;77;25769;-82
2021/01/05 02:46:37;;;;;;;33.02;19.45;;;;;;;1.47;77.70;96488.34;1858004;77;25808;-82
2021/01/05 02:49:37;;;;;;;32.65;19.60;;;;;;;1.45;77.80;96489.84;1857855;77;26339;-82
2021/01/05 02:52:22;;;;;;;28.02;17.48;;;;;;;1.50;77.96;96478.18;1848742;77;28837;-82
2021/01/05 02:55:41;;;;;;;30.97;18.15;;;;;;;1.54;77.98;96475.50;1823866;77;26209;-82
2021/01/05 02:58:23;;;;;;;30.20;17.87;;;;;;;1.56;77.94;96472.16;1745448;77;26430;-81
2021/01/05 03:01:25;;;;;;;30.35;18.45;;;;;;;1.59;77.96;96462.48;1736493;81;26118;-82
2021/01/05 03:03:52;;;;;;;28.00;18.20;;;;;;;1.56;77.87;96464.69;1721632;81;26206;-82
2021/01/05 03:06:34;;;;;;;28.50;18.52;;;;;;;1.53;77.94;96459.22;1733908;81;28717;-81
2021/01/05 03:09:30;;;;;;;25.52;15.90;;;;;;;1.44;77.86;96463.78;1736541;81;25826;-82
2021/01/05 03:12:18;;;;;;;27.70;17.37;;;;;;;1.45;77.97;96456.59;1735187;81;25696;-82
2021/01/05 03:15:44;;;;;;;29.60;17.10;;;;;;;1.40;77.99;96457.65;1736508;81;25828;-82
2021/01/05 03:18:37;;;;;;;31.45;17.30;;;;;;;1.41;78.08;96456.14;1735906;81;26347;-82
2021/01/05 03:21:15;;;;;;;29.32;18.62;;;;;;;1.44;78.12;96447.82;1736671;81;28379;-81
2021/01/05 03:23:46;;;;;;;28.00;17.10;;;;;;;1.51;78.19;96445.27;1736641;81;25767;-82
2021/01/05 03:26:17;;;;;;;24.70;16.50;;;;;;;1.59;78.18;96439.87;1736654;81;25773;-82
2021/01/05 03:28:45;;;;;;;25.90;16.07;;;;;;;1.52;78.04;96437.61;1736730;81;26447;-82
2021/01/05 03:31:20;;;;;;;26.75;16.27;;;;;;;1.56;78.09;96434.10;1735383;81;25871;-82
2021/01/05 03:33:53;;;;;;;27.32;16.42;;;;;;;1.57;78.03;96433.09;1736729;81;27608;-82
2021/01/05 03:36:21;;;;;;;25.70;15.60;;;;;;;1.53;78.00;96433.12;1735435;81;25799;-81
2021/01/05 03:38:48;;;;;;;26.90;15.80;;;;;;;1.49;78.08;96429.15;1735759;81;25836;-82
2021/01/05 03:41:16;;;;;;;27.17;14.73;;;;;;;1.44;78.08;96421.23;1736142;81;25864;-82
2021/01/05 03:43:43;;;;;;;22.67;13.58;;;;;;;1.43;78.12;96425.39;1735102;81;25947;-81
2021/01/05 03:46:12;;;;;;;21.97;13.65;;;;;;;1.45;78.20;96424.69;1736381;81;27430;-81
2021/01/05 03:48:39;;;;;;;21.77;13.78;;;;;;;1.44;78.18;96425.72;1735887;81;25760;-81
2021/01/05 03:51:07;;;;;;;23.32;13.45;;;;;;;1.44;78.18;96416.41;1735972;81;25359;-83
2021/01/05 03:53:35;;;;;;;23.20;14.90;;;;;;;1.47;78.19;96420.52;1735578;81;25740;-81
2021/01/05 03:56:03;;;;;;;25.62;15.35;;;;;;;1.50;78.23;96420.17;1735571;81;25737;-81
2021/01/05 03:58:30;;;;;;;28.25;17.20;;;;;;;1.48;78.18;96416.36;1733495;81;27510;-82
2021/01/05 04:00:57;;;;;;;26.37;16.97;;;;;;;1.51;78.21;96409.36;1730874;82;25779;-82
2021/01/05 04:03:25;;;;;;;31.50;17.90;;;;;;;1.53;78.15;96407.35;1698301;82;25669;-82
2021/01/05 04:05:52;;;;;;;32.78;19.12;;;;;;;1.52;78.12;96404.87;1698875;82;25791;-82
2021/01/05 04:08:19;;;;;;;32.90;19.62;;;;;;;1.49;78.09;96399.39;1680467;83;25852;-82
2021/01/05 04:10:47;;;;;;;29.55;17.52;;;;;;;1.49;78.14;96403.38;1681817;83;28428;-82
2021/01/05 04:13:14;;;;;;;16.93;12.90;;;;;;;1.50;78.20;96402.38;1680828;83;25813;-83
2021/01/05 04:15:42;;;;;;;16.37;11.30;;;;;;;1.56;78.28;96404.34;1680705;83;25790;-81
2021/01/05 04:18:10;;;;;;;15.08;11.10;;;;;;;1.63;78.32;96401.27;1681930;83;26538;-81
2021/01/05 04:20:37;;;;;;;17.02;11.03;;;;;;;1.64;78.17;96408.25;1680884;83;25821;-81
2021/01/05 04:23:04;;;;;;;17.57;11.45;;;;;;;1.64;78.18;96396.28;1681132;83;27509;-81
2021/01/05 04:25:32;;;;;;;17.60;10.58;;;;;;;1.66;78.21;96398.26;1680465;83;25325;-81
2021/01/05 04:27:59;;;;;;;15.32;9.85;;;;;;;1.70;78.16;96398.70;1681875;83;25780;-80
2021/01/05 04:30:36;;;;;;;15.60;10.00;;;;;;;1.72;78.14;96399.35;1668943;84;25853;-81
2021/01/05 04:33:11;;;;;;;14.55;9.33;;;;;;;1.75;78.16;96397.17;1698363;82;25775;-81
2021/01/05 04:35:39;;;;;;;13.13;8.33;;;;;;;1.76;78.10;96396.16;1667013;84;28473;-80
2021/01/05 04:38:07;;;;;;;13.40;8.53;;;;;;;1.75;78.05;96394.50;1680534;83;25754;-81
2021/01/05 04:40:38;;;;;;;16.25;9.23;;;;;;;1.76;78.06;96396.16;1680851;83;25773;-82
2021/01/05 04:43:38;;;;;;;14.50;9.40;;;;;;;1.79;78.10;96394.98;1681790;83;26369;-82
2021/01/05 04:46:21;;;;;;;14.20;9.15;;;;;;;1.79;78.05;96394.48;1697144;84;25783;-82
2021/01/05 04:48:55;;;;;;;;;;;;;;;1.83;78.07;96395.42;1698521;83;27506;-84
2021/01/05 04:51:45;;;;;;;13.05;9.35;;;;;;;1.80;78.02;96393.47;1695894;83;26344;-82
2021/01/05 04:54:23;;;;;;;12.43;8.05;;;;;;;1.77;78.07;96393.83;1696902;84;25768;-81
2021/01/05 04:57:08;;;;;;;14.50;8.20;;;;;;;1.79;78.10;96398.47;1695942;83;26685;-82
2021/01/05 04:59:43;;;;;;;12.47;8.43;;;;;;;1.82;78.13;96397.25;1673966;84;25698;-81
2021/01/05 05:02:30;;;;;;;13.08;8.33;;;;;;;1.81;78.12;96388.98;1673474;83;27512;-81
2021/01/05 05:05:26;;;;;;;10.98;7.78;;;;;;;1.83;78.12;96392.26;1690072;83;26043;-84
2021/01/05 05:08:13;;;;;;;14.38;7.72;;;;;;;1.87;78.18;96388.73;1690148;84;26411;-81
2021/01/05 05:11:01;;;;;;;12.33;7.22;;;;;;;1.89;78.11;96385.40;1735918;81;26357;-83
2021/01/05 05:14:08;;;;;;;11.15;7.90;;;;;;;1.91;78.10;96380.73;1736922;81;25789;-83
2021/01/05 05:16:47;;;;;;;14.30;7.92;;;;;;;1.95;78.07;96381.99;1706558;82;27514;-81
2021/01/05 05:19:42;;;;;;;12.88;8.18;;;;;;;1.94;77.98;96383.83;1735073;81;25853;-82
2021/01/05 05:22:24;;;;;;;14.50;8.78;;;;;;;1.99;78.16;96380.13;1734482;81;25770;-82
2021/01/05 05:25:02;;;;;;;10.93;7.75;;;;;;;1.99;78.05;96382.78;1735616;81;26365;-81
2021/01/05 05:28:01;;;;;;;16.23;11.88;;;;;;;1.95;77.98;96382.81;1734913;81;25781;-82
2021/01/05 05:30:39;;;;;;;18.95;13.03;;;;;;;1.95;77.93;96388.64;1735418;81;28513;-83
2021/01/05 05:36:05;;;;;;;25.08;12.90;;;;;;;1.93;77.90;96385.37;1842366;76;34899;-83
2021/01/05 05:39:16;;;;;;;26.75;12.60;;;;;;;1.85;77.92;96388.09;1852352;77;25790;-81
2021/01/05 05:42:04;;;;;;;24.07;12.80;;;;;;;1.86;77.94;96384.42;1831408;77;27432;-83
2021/01/05 05:44:51;;;;;;;21.60;10.98;;;;;;;1.86;78.02;96384.42;1837048;77;26109;-81
2021/01/05 05:47:36;;;;;;;18.55;10.63;;;;;;;1.88;78.00;96378.42;1834899;77;25697;-82
2021/01/05 05:50:20;;;;;;;18.48;11.40;;;;;;;1.83;77.97;96383.45;1851012;76;25739;-82
2021/01/05 05:53:02;;;;;;;23.65;13.55;;;;;;;1.86;78.05;96379.92;1828762;77;25735;-82
2021/01/05 05:56:04;;;;;;;26.50;14.78;;;;;;;1.89;78.01;96384.06;1852470;77;27494;-83
2021/01/05 05:58:52;;;;;;;37.42;20.95;;;;;;;1.89;77.98;96384.06;1852585;77;25653;-82
2021/01/05 06:01:27;;;;;;;36.90;19.20;;;;;;;1.90;77.97;96378.56;1847306;77;25681;-82
2021/01/05 06:03:59;;;;;;;33.95;18.55;;;;;;;1.93;77.96;96378.72;1779531;79;25853;-82
2021/01/05 06:06:27;;;;;;;;;;;;;;;1.93;77.91;96375.55;1842205;77;25880;-83
2021/01/05 06:08:54;;;;;;;35.33;21.48;;;;;;;1.91;77.91;96374.07;1818976;77;27496;-82
2021/01/05 06:11:21;;;;;;;36.93;22.02;;;;;;;1.92;77.94;96373.89;1845138;77;25760;-83
2021/01/05 06:13:49;;;;;;;38.13;22.60;;;;;;;1.93;77.91;96370.73;1838982;77;25708;-83
2021/01/05 06:16:16;;;;;;;31.00;18.95;;;;;;;1.95;77.87;96364.69;1842586;77;26146;-84
2021/01/05 06:18:43;;;;;;;36.25;21.48;;;;;;;1.92;77.80;96363.25;1830672;77;25763;-83
2021/01/05 06:21:11;;;;;;;42.62;23.70;;;;;;;1.94;77.85;96365.70;1831475;77;28457;-83
2021/01/05 06:23:38;;;;;;;42.73;24.82;;;;;;;1.95;77.84;96364.69;1828618;77;25761;-84
2021/01/05 06:26:05;;;;;;;41.00;21.60;;;;;;;1.96;77.82;96357.03;1852315;77;26225;-84
2021/01/05 06:28:33;;;;;;;44.58;25.68;;;;;;;1.90;77.64;96359.94;1847006;77;26146;-84
2021/01/05 06:31:00;;;;;;;45.17;25.68;;;;;;;1.80;77.69;96357.55;1818949;77;26237;-84
2021/01/05 06:33:27;;;;;;;36.70;22.00;;;;;;;1.81;77.81;96364.50;1845071;77;28345;-85
2021/01/05 06:35:55;;;;;;;44.00;24.87;;;;;;;1.84;77.86;96353.17;1841962;77;25727;-84
2021/01/05 06:38:22;;;;;;;49.93;27.60;;;;;;;1.89;77.89;96356.13;1845995;77;25908;-84
2021/01/05 06:40:49;;;;;;;42.88;24.27;;;;;;;1.90;77.86;96355.12;1855856;77;25629;-83
2021/01/05 06:43:17;;;;;;;59.38;30.10;;;;;;;1.89;77.84;96354.29;1849332;77;25687;-84
2021/01/05 06:45:44;;;;;;;49.45;27.75;;;;;;;1.77;77.71;96351.25;1832041;77;27514;-84
2021/01/05 06:48:12;;;;;;;39.60;25.72;;;;;;;1.77;77.91;96351.76;1842810;77;26048;-84
2021/01/05 06:50:39;;;;;;;52.60;29.57;;;;;;;1.76;77.88;96356.25;1843583;77;25663;-84
2021/01/05 06:53:06;;;;;;;52.83;31.50;;;;;;;1.79;77.95;96350.58;1822629;77;25730;-87
2021/01/05 06:55:34;;;;;;;44.40;26.48;;;;;;;1.84;77.95;96355.83;1841445;77;25655;-83
2021/01/05 06:58:01;;;;;;;45.70;26.42;;;;;;;1.78;77.85;96347.59;1825076;77;27412;-85
2021/01/05 07:00:31;;;;;;;44.00;26.05;;;;;;;1.75;77.88;96352.44;1838585;77;25781;-84
2021/01/05 07:02:59;;;;;;;50.03;28.98;;;;;;;1.72;77.88;96346.14;1831529;77;25686;-83
2021/01/05 07:05:26;;;;;;;62.05;36.17;;;;;;;1.68;77.92;96346.20;1855326;77;25704;-83
2021/01/05 07:07:54;;;;;;;57.13;32.98;;;;;;;1.70;77.98;96346.32;1855196;77;25923;-83
2021/01/05 07:10:22;;;;;;;62.98;35.40;;;;;;;1.70;77.95;96345.49;1842157;77;27619;-83
2021/01/05 07:12:50;;;;;;;59.58;34.83;;;;;;;1.65;77.95;96350.05;1821110;77;25281;-84
2021/01/05 07:15:19;;;;;;;60.10;34.10;;;;;;;1.54;77.92;96359.80;1821755;77;25864;-83
2021/01/05 07:17:47;;;;;;;55.75;32.17;;;;;;;1.55;78.12;96354.80;1842983;77;25712;-83
2021/01/05 07:20:16;;;;;;;57.75;30.80;;;;;;;1.60;78.23;96350.25;1831615;77;25687;-83
2021/01/05 07:22:44;;;;;;;56.92;31.60;;;;;;;1.61;78.21;96344.76;1836209;77;28386;-83
2021/01/05 07:25:14;;;;;;;58.65;30.95;;;;;;;1.67;78.23;96348.54;1851246;77;26222;-83
2021/01/05 07:27:41;;;;;;;58.87;31.62;;;;;;;1.72;78.28;96342.98;1855306;77;25689;-83
2021/01/05 07:30:10;;;;;;;35.83;20.05;;;;;;;1.79;78.28;96340.44;1855323;77;26517;-85
2021/01/05 07:32:37;;;;;;;42.62;24.52;;;;;;;1.77;78.15;96337.95;1840616;77;25787;-83
2021/01/05 07:35:07;;;;;;;43.63;23.20;;;;;;;1.74;78.15;96340.97;1812434;77;27567;-82
2021/01/05 07:37:39;;;;;;;46.73;22.65;;;;;;;1.78;78.21;96336.95;1776399;77;25717;-83
2021/01/05 07:40:08;;;;;;;52.58;24.55;;;;;;;1.77;78.15;96341.94;1773162;79;25324;-83
2021/01/05 07:42:35;;;;;;;58.48;23.85;;;;;;;1.71;78.13;96341.83;1764335;77;25725;-82
2021/01/05 07:45:08;;;;;;;51.63;25.15;;;;;;;1.71;78.17;96339.99;1778799;77;25755;-83
2021/01/05 07:47:38;;;;;;;45.48;23.95;;;;;;;1.74;78.21;96334.31;1769908;79;28559;-82
2021/01/05 07:50:11;;;;;;;47.48;23.70;;;;;;;1.75;78.17;96335.97;1764254;79;25772;-82
2021/01/05 07:52:42;;;;;;;48.95;25.27;;;;;;;1.76;78.21;96334.97;1734027;79;25794;-83
2021/01/05 07:55:20;;;;;;;53.03;29.47;;;;;;;1.81;78.22;96334.43;1731082;80;25725;-82
2021/01/05 07:57:53;;;;;;;47.53;29.23;;;;;;;1.82;78.22;96336.05;1722865;80;25829;-81
2021/01/05 08:00:27;;;;;;;48.73;28.83;;;;;;;1.84;78.25;96333.21;1733826;81;28679;-82
2021/01/05 08:02:57;;;;;;;43.95;25.88;;;;;;;1.85;78.18;96340.19;1742444;79;25925;-82
2021/01/05 08:05:28;;;;;;;41.77;24.52;;;;;;;1.92;78.30;96347.78;1739080;79;25403;-82
2021/01/05 08:07:58;;;;;;;47.50;24.77;;;;;;;1.95;78.23;96341.56;1753595;79;26422;-84
2021/01/05 08:10:31;;;;;;;63.45;30.23;;;;;;;1.98;78.20;96333.72;1759976;79;25857;-83
2021/01/05 08:13:03;;;;;;;88.95;45.03;;;;;;;2.01;78.18;96338.19;1758735;79;27567;-82
2021/01/05 08:15:31;;;;;;;79.53;40.03;;;;;;;2.00;78.16;96334.37;1754290;79;25785;-84
2021/01/05 08:17:59;;;;;;;68.55;36.93;;;;;;;2.00;78.15;96333.05;1763893;79;25866;-82
2021/01/05 08:20:31;;;;;;;54.50;28.85;;;;;;;2.01;78.17;96332.03;1756305;79;26381;-82
2021/01/05 08:23:00;;;;;;;47.75;26.10;;;;;;;2.03;78.17;96335.34;1756958;79;26435;-83
2021/01/05 08:25:29;;;;;;;45.80;24.67;;;;;;;2.01;78.14;96326.21;1749766;79;27500;-82
2021/01/05 08:27:56;;;;;;;41.40;24.98;;;;;;;2.02;78.13;96325.70;1756706;79;25333;-82
2021/01/05 08:30:29;;;;;;;80.35;36.83;;;;;;;2.03;78.14;96328.69;1756629;79;25767;-82
2021/01/05 08:33:04;;;;;;;83.12;39.38;;;;;;;2.05;78.17;96326.67;1763965;81;26450;-82
2021/01/05 08:35:33;;;;;;;67.60;35.35;;;;;;;2.09;78.14;96326.61;1765793;79;25901;-82
2021/01/05 08:38:00;;;;;;;60.92;31.30;;;;;;;2.11;78.12;96325.92;1779443;80;27710;-84
2021/01/05 08:40:32;;;;;;;51.20;27.58;;;;;;;2.11;78.10;96325.92;1763006;79;25719;-85
2021/01/05 08:43:04;;;;;;;64.82;32.65;;;;;;;2.09;78.07;96324.77;1768368;79;25695;-84
2021/01/05 08:45:32;;;;;;;70.78;33.80;;;;;;;2.13;78.20;96327.90;1789265;80;25701;-81
2021/01/05 08:48:00;;;;;;;67.60;38.20;;;;;;;2.17;78.20;96326.53;1781024;79;26128;-81
2021/01/05 08:50:32;;;;;;;75.08;39.88;;;;;;;2.19;78.19;96329.80;1776341;80;27510;-81
2021/01/05 08:53:03;;;;;;;110.60;50.60;;;;;;;2.25;78.28;96327.75;1776598;80;26378;-82
2021/01/05 08:58:17;;;;;;;105.95;46.80;;;;;;;2.40;78.21;96328.55;1861411;76;35202;-81
2021/01/05 09:00:45;;;;;;;107.63;46.58;;;;;;;2.38;78.21;96331.91;1839557;77;26259;-82
2021/01/05 09:03:12;;;;;;;106.47;43.75;;;;;;;2.32;78.11;96321.16;1844590;77;27476;-81
2021/01/05 09:05:40;;;;;;;68.20;32.25;;;;;;;2.38;78.26;96326.58;1818796;77;25761;-83
2021/01/05 09:08:08;;;;;;;48.78;24.23;;;;;;;2.41;78.25;96321.39;1847704;76;25739;-82
2021/01/05 09:10:36;;;;;;;45.83;25.57;;;;;;;2.38;78.12;96321.25;1852401;77;25874;-81
2021/01/05 09:13:03;;;;;;;41.80;21.85;;;;;;;2.41;78.21;96320.89;1828842;77;25749;-83
2021/01/05 09:15:31;;;;;;;46.28;22.90;;;;;;;2.47;78.26;96314.80;1848036;76;27512;-81
2021/01/05 09:18:01;;;;;;;46.42;26.60;;;;;;;2.53;78.27;96312.73;1848942;77;25699;-82
2021/01/05 09:20:27;;;;;;;42.03;24.67;;;;;;;2.58;78.19;96311.32;1840270;77;25902;-81
2021/01/05 09:22:55;;;;;;;38.55;22.02;;;;;;;2.61;78.13;96309.63;1850331;77;25727;-81
2021/01/05 09:25:23;;;;;;;36.08;21.07;;;;;;;2.63;78.05;96307.59;1835634;77;25341;-82
2021/01/05 09:27:53;;;;;;;39.60;22.25;;;;;;;2.65;78.00;96309.07;1847755;77;27503;-82
2021/01/05 09:30:22;;;;;;;40.73;23.07;;;;;;;2.70;77.95;96307.16;1844247;76;25731;-83
2021/01/05 09:32:50;;;;;;;39.95;23.50;;;;;;;2.71;77.92;96302.14;1827342;77;25742;-82
2021/01/05 09:35:18;;;;;;;49.67;26.20;;;;;;;2.74;77.91;96300.44;1838564;77;26269;-82
2021/01/05 09:37:49;;;;;;;46.68;26.23;;;;;;;2.76;77.87;96305.08;1842985;76;25680;-82
2021/01/05 09:40:19;;;;;;;43.87;24.18;;;;;;;2.77;77.82;96305.40;1821555;76;27486;-82
2021/01/05 09:42:47;;;;;;;36.60;20.32;;;;;;;2.78;77.71;96296.36;1827003;77;25431;-85
2021/01/05 09:45:16;;;;;;;40.63;20.32;;;;;;;2.73;77.64;96292.13;1806455;77;25763;-82
2021/01/05 09:47:43;;;;;;;35.88;18.27;;;;;;;2.74;77.73;96293.27;1844434;77;25836;-81
2021/01/05 09:50:12;;;;;;;36.68;20.72;;;;;;;2.76;77.73;96287.75;1852319;77;25814;-87
2021/01/05 09:52:39;;;;;;;37.55;21.05;;;;;;;2.74;77.66;96291.94;1828760;77;28457;-83
2021/01/05 09:55:08;;;;;;;39.05;23.40;;;;;;;2.75;77.66;96292.77;1838942;77;25651;-83
2021/01/05 09:57:37;;;;;;;42.90;25.72;;;;;;;2.72;77.62;96291.30;1814617;77;25511;-82
2021/01/05 10:00:08;;;;;;;40.28;22.25;;;;;;;2.67;77.62;96283.03;1843372;77;26013;-87
2021/01/05 10:02:36;;;;;;;38.53;22.17;;;;;;;2.69;77.68;96282.84;1821064;77;25830;-84
2021/01/05 10:05:04;;;;;;;50.90;26.48;;;;;;;2.72;77.68;96279.81;1819848;77;28447;-85
2021/01/05 10:07:32;;;;;;;39.30;22.13;;;;;;;2.72;77.71;96279.31;1836497;77;26123;-83
2021/01/05 10:09:59;;;;;;;35.13;20.30;;;;;;;2.68;77.65;96282.02;1795607;77;25758;-83
2021/01/05 10:12:27;;;;;;;31.75;19.62;;;;;;;2.66;77.66;96284.05;1827222;77;26566;-83
2021/01/05 10:14:54;;;;;;;29.35;18.67;;;;;;;2.68;77.75;96283.86;1842682;77;25748;-85
2021/01/05 10:17:22;;;;;;;33.45;17.92;;;;;;;2.73;77.74;96290.79;1842868;77;28619;-83
2021/01/05 10:19:49;;;;;;;38.85;20.02;;;;;;;2.75;77.65;96279.44;1819334;77;25377;-85
2021/01/05 10:22:16;;;;;;;66.57;30.85;;;;;;;2.75;77.62;96280.77;1830260;77;25760;-84
2021/01/05 10:24:44;;;;;;;92.57;40.58;;;;;;;2.74;77.64;96280.45;1832473;77;26355;-86
2021/01/05 10:27:11;;;;;;;99.15;44.83;;;;;;;2.73;77.64;96281.47;1842802;77;25708;-85
2021/01/05 10:29:39;;;;;;;88.45;42.25;;;;;;;2.72;77.63;96279.81;1841909;77;28368;-84
2021/01/05 10:32:06;;;;;;;76.77;35.70;;;;;;;2.71;77.65;96280.83;1823208;77;25643;-85
2021/01/05 10:34:33;;;;;;;49.90;28.50;;;;;;;2.70;77.68;96279.17;1794025;77;25694;-84
2021/01/05 10:37:01;;;;;;;44.80;24.95;;;;;;;2.67;77.65;96283.03;1821702;77;26175;-82
2021/01/05 10:39:30;;;;;;;46.92;24.77;;;;;;;2.66;77.60;96277.89;1845196;77;26262;-83
2021/01/05 10:41:59;;;;;;;62.27;29.18;;;;;;;2.66;77.60;96277.39;1811330;77;27675;-84
2021/01/05 10:44:27;;;;;;;56.08;28.35;;;;;;;2.68;77.64;96277.20;1816301;77;25668;-83
2021/01/05 10:47:03;;;;;;;63.55;31.90;;;;;;;2.72;77.68;96271.81;1842678;77;25295;-82
2021/01/05 10:49:31;;;;;;;99.50;43.15;;;;;;;2.76;77.67;96271.77;1819106;77;26854;-82
2021/01/05 10:52:01;;;;;;;123.50;47.65;;;;;;;2.77;77.67;96272.09;1825998;77;25669;-83
2021/01/05 10:54:29;;;;;;;118.95;49.27;;;;;;;2.81;77.66;96268.00;1829934;77;27704;-82
2021/01/05 10:57:04;;;;;;;120.53;49.93;;;;;;;2.85;77.62;96266.62;1814135;77;25861;-83
2021/01/05 10:59:33;;;;;;;110.40;50.12;;;;;;;2.87;77.61;96269.92;1844569;77;25814;-85
2021/01/05 11:02:03;;;;;;;97.67;45.15;;;;;;;2.91;77.71;96264.51;1847389;77;26210;-81
2021/01/05 11:04:32;;;;;;;69.62;37.83;;;;;;;2.94;77.72;96260.64;1846138;77;25868;-84
2021/01/05 11:07:04;;;;;;;57.23;32.38;;;;;;;2.88;77.56;96256.92;1846533;77;27660;-81
2021/01/05 11:09:33;;;;;;;51.63;30.43;;;;;;;2.80;77.47;96261.02;1842765;77;25675;-81
2021/01/05 11:12:04;;;;;;;49.93;28.80;;;;;;;2.80;77.62;96261.02;1846030;77;25706;-81
2021/01/05 11:14:33;;;;;;;56.10;33.03;;;;;;;2.87;77.76;96259.27;1851792;77;25695;-82
2021/01/05 11:17:00;;;;;;;67.75;40.05;;;;;;;2.89;77.78;96254.57;1840703;77;25870;-81
2021/01/05 11:19:28;;;;;;;57.30;34.98;;;;;;;2.94;77.77;96255.31;1851599;77;28921;-81
2021/01/05 11:22:03;;;;;;;68.50;37.35;;;;;;;2.98;77.70;96253.41;1843541;77;26295;-84
2021/01/05 11:24:31;;;;;;;59.50;36.55;;;;;;;3.00;77.62;96255.38;1817153;77;26080;-81
2021/01/05 11:26:59;;;;;;;67.32;39.88;;;;;;;3.04;77.62;96255.30;1826215;77;25751;-80
2021/01/05 11:29:27;;;;;;;77.35;43.15;;;;;;;2.98;77.44;96256.59;1851655;77;25771;-81
2021/01/05 11:31:58;;;;;;;78.83;42.62;;;;;;;2.90;77.43;96252.19;1846576;77;27500;-82
2021/01/05 11:34:26;;;;;;;75.90;43.45;;;;;;;2.88;77.52;96259.08;1824287;77;25759;-83
2021/01/05 11:36:54;;;;;;;85.00;45.92;;;;;;;2.87;77.53;96261.42;1845471;77;25273;-83
2021/01/05 11:39:22;;;;;;;81.35;45.50;;;;;;;2.89;77.62;96255.91;1829540;77;26158;-82
2021/01/05 11:41:49;;;;;;;82.30;46.92;;;;;;;2.92;77.71;96251.50;1841762;77;25754;-82
2021/01/05 11:44:17;;;;;;;95.53;52.30;;;;;;;2.94;77.70;96249.47;1851510;77;27496;-85
2021/01/05 11:46:45;;;;;;;94.75;49.15;;;;;;;2.95;77.67;96255.12;1836342;77;25767;-82
2021/01/05 11:49:12;;;;;;;90.55;47.73;;;;;;;2.90;77.53;96252.19;1843971;77;25767;-82
2021/01/05 11:51:40;;;;;;;116.95;62.55;;;;;;;2.76;77.34;96257.94;1851715;77;25692;-83
2021/01/05 11:54:08;;;;;;;121.60;65.00;;;;;;;2.69;77.43;96264.20;1828469;77;25656;-83
2021/01/05 11:56:36;;;;;;;118.67;61.13;;;;;;;2.72;77.66;96269.16;1828284;77;27499;-82